createdAt,value
2022-12-01T00:01:41.778Z,99.25
2022-12-01T00:04:10.834Z,99.09
2022-12-01T00:06:40.856Z,98.83
2022-12-01T00:09:28.718Z,98.84
2022-12-01T00:11:57.681Z,98.56
2022-12-01T00:14:26.667Z,99.32
2022-12-01T00:16:56.617Z,99.75
2022-12-01T00:19:26.986Z,99.77
2022-12-01T00:21:55.696Z,99.14
2022-12-01T00:24:25.615Z,98.90
2022-12-01T00:26:54.399Z,99.43
2022-12-01T00:29:23.498Z,100.00
2022-12-01T00:31:52.548Z,100.00
2022-12-01T00:34:24.715Z,100.00
2022-12-01T00:36:53.961Z,100.00
2022-12-01T00:39:23.459Z,99.94
2022-12-01T00:41:52.376Z,99.27
2022-12-01T00:44:22.185Z,98.61
2022-12-01T00:46:51.671Z,98.40
2022-12-01T00:49:21.997Z,98.99
2022-12-01T00:51:51.210Z,99.58
2022-12-01T00:54:20.386Z,99.61
2022-12-01T00:56:50.184Z,100.00
2022-12-01T00:59:19.424Z,99.20
2022-12-01T01:01:50.512Z,97.67
2022-12-01T01:04:21.413Z,97.58
2022-12-01T01:06:50.881Z,97.80
2022-12-01T01:09:20.682Z,97.63
2022-12-01T01:11:50.669Z,98.33
2022-12-01T01:14:20.969Z,98.76
2022-12-01T01:16:52.139Z,99.77
2022-12-01T01:19:21.501Z,100.00
2022-12-01T01:21:51.354Z,100.00
2022-12-01T01:24:21.400Z,100.00
2022-12-01T01:26:51.022Z,100.00
2022-12-01T01:29:20.229Z,100.00
2022-12-01T01:31:50.311Z,100.00
2022-12-01T01:34:20.556Z,100.00
2022-12-01T01:36:49.539Z,100.00
2022-12-01T01:39:19.960Z,100.00
2022-12-01T01:41:49.885Z,99.87
2022-12-01T01:44:54.767Z,99.51
2022-12-01T01:47:41.130Z,99.86
2022-12-01T01:50:14.118Z,100.00
2022-12-01T01:52:52.932Z,100.00
2022-12-01T01:55:22.634Z,99.43
2022-12-01T01:57:53.872Z,99.51
2022-12-01T02:00:24.250Z,99.87
2022-12-01T02:02:55.333Z,99.81
2022-12-01T02:05:35.292Z,97.46
2022-12-01T02:08:05.834Z,96.04
2022-12-01T02:10:50.703Z,95.96
2022-12-01T02:13:48.692Z,96.02
2022-12-01T02:16:28.069Z,95.98
2022-12-01T02:19:25.661Z,96.74
2022-12-01T02:22:04.536Z,95.98
2022-12-01T02:24:44.264Z,95.72
2022-12-01T02:27:33.104Z,95.76
2022-12-01T02:30:10.356Z,96.10
2022-12-01T02:33:00.768Z,96.41
2022-12-01T02:35:33.423Z,97.58
2022-12-01T02:38:13.079Z,97.58
2022-12-01T02:41:08.718Z,97.87
2022-12-01T02:43:51.225Z,98.41
2022-12-01T02:46:37.855Z,98.58
2022-12-01T02:49:37.683Z,98.68
2022-12-01T02:52:08.663Z,98.61
2022-12-01T02:54:39.349Z,99.81
2022-12-01T02:57:14.926Z,99.70
2022-12-01T02:59:51.664Z,99.69
2022-12-01T03:02:44.964Z,100.00
2022-12-01T03:05:34.880Z,100.00
2022-12-01T03:08:25.426Z,100.00
2022-12-01T03:10:56.030Z,100.00
2022-12-01T03:13:42.846Z,100.00
2022-12-01T03:16:20.187Z,100.00
2022-12-01T03:19:07.506Z,100.00
2022-12-01T03:21:42.527Z,100.00
2022-12-01T03:24:18.027Z,100.00
2022-12-01T03:26:52.579Z,100.00
2022-12-01T03:29:27.876Z,100.00
2022-12-01T03:32:10.481Z,100.00
2022-12-01T03:34:50.414Z,100.00
2022-12-01T03:37:41.148Z,100.00
2022-12-01T03:40:16.321Z,99.72
2022-12-01T03:42:54.489Z,98.73
2022-12-01T03:45:41.797Z,98.58
2022-12-01T03:48:11.204Z,99.08
2022-12-01T03:50:54.539Z,100.00
2022-12-01T03:53:28.470Z,99.57
2022-12-01T03:56:03.648Z,98.29
2022-12-01T03:58:38.828Z,98.54
2022-12-01T04:01:09.586Z,99.75
2022-12-01T04:03:39.644Z,99.94
2022-12-01T04:06:09.253Z,100.00
2022-12-01T04:08:39.707Z,100.00
2022-12-01T04:11:32.473Z,100.00
2022-12-01T04:14:02.896Z,100.00
2022-12-01T04:16:32.110Z,100.00
2022-12-01T04:19:01.515Z,100.00
2022-12-01T04:21:31.152Z,100.00
2022-12-01T04:24:01.104Z,100.00
2022-12-01T04:26:32.673Z,100.00
2022-12-01T04:29:05.152Z,100.00
2022-12-01T04:31:35.647Z,100.00
2022-12-01T04:34:06.307Z,100.00
2022-12-01T04:36:36.715Z,100.00
2022-12-01T04:39:05.973Z,100.00
2022-12-01T04:41:35.435Z,100.00
2022-12-01T04:44:05.569Z,100.00
2022-12-01T04:46:35.199Z,100.00
2022-12-01T04:49:06.571Z,100.00
2022-12-01T04:51:35.581Z,100.00
2022-12-01T04:54:06.317Z,100.00
2022-12-01T04:56:35.515Z,100.00
2022-12-01T04:59:05.227Z,100.00
2022-12-01T05:01:35.357Z,100.00
2022-12-01T05:04:05.995Z,100.00
2022-12-01T05:06:35.810Z,100.00
2022-12-01T05:09:05.397Z,100.00
2022-12-01T05:11:36.744Z,100.00
2022-12-01T05:14:06.867Z,100.00
2022-12-01T05:16:36.015Z,100.00
2022-12-01T05:19:26.307Z,100.00
2022-12-01T05:21:55.553Z,100.00
2022-12-01T05:24:25.052Z,100.00
2022-12-01T05:26:55.071Z,100.00
2022-12-01T05:29:24.137Z,100.00
2022-12-01T05:31:53.439Z,100.00
2022-12-01T05:34:22.560Z,100.00
2022-12-01T05:36:51.452Z,100.00
2022-12-01T05:39:21.362Z,100.00
2022-12-01T05:41:50.557Z,99.84
2022-12-01T05:44:19.360Z,99.75
2022-12-01T05:46:49.149Z,99.96
2022-12-01T05:49:18.261Z,100.00
2022-12-01T05:51:48.099Z,100.00
2022-12-01T05:54:17.063Z,100.00
2022-12-01T05:56:46.462Z,100.00
2022-12-01T05:59:15.544Z,100.00
2022-12-01T06:01:44.282Z,100.00
2022-12-01T06:04:13.171Z,100.00
2022-12-01T06:06:41.909Z,100.00
2022-12-01T06:09:11.316Z,100.00
2022-12-01T06:11:40.105Z,99.79
2022-12-01T06:14:09.429Z,99.04
2022-12-01T06:16:38.152Z,99.67
2022-12-01T06:19:07.186Z,100.00
2022-12-01T06:21:35.764Z,100.00
2022-12-01T06:24:04.975Z,100.00
2022-12-01T06:26:33.857Z,100.00
2022-12-01T06:29:03.057Z,100.00
2022-12-01T06:31:31.741Z,100.00
2022-12-01T06:34:01.243Z,100.00
2022-12-01T06:36:29.834Z,100.00
2022-12-01T06:38:59.426Z,99.99
2022-12-01T06:41:28.223Z,99.02
2022-12-01T06:43:57.014Z,98.30
2022-12-01T06:46:25.745Z,98.05
2022-12-01T06:48:54.789Z,97.57
2022-12-01T06:51:23.478Z,97.03
2022-12-01T06:53:57.727Z,96.37
2022-12-01T06:56:29.964Z,95.86
2022-12-01T06:58:59.163Z,95.90
2022-12-01T07:01:28.825Z,93.63
2022-12-01T07:03:57.655Z,92.71
2022-12-01T07:06:26.550Z,91.01
2022-12-01T07:08:55.133Z,93.87
2022-12-01T07:11:24.222Z,88.37
2022-12-01T07:13:56.698Z,83.42
2022-12-01T07:16:26.781Z,81.62
2022-12-01T07:18:56.219Z,79.26
2022-12-01T07:21:25.420Z,77.16
2022-12-01T07:23:55.130Z,76.51
2022-12-01T07:26:23.712Z,75.84
2022-12-01T07:28:53.411Z,77.10
2022-12-01T07:31:22.348Z,74.10
2022-12-01T07:33:51.812Z,72.71
2022-12-01T07:36:20.808Z,71.78
2022-12-01T07:38:49.489Z,73.68
2022-12-01T07:41:19.660Z,71.33
2022-12-01T07:43:49.422Z,71.29
2022-12-01T07:46:23.702Z,70.81
2022-12-01T07:48:54.563Z,67.32
2022-12-01T07:51:24.289Z,63.38
2022-12-01T07:53:54.544Z,62.78
2022-12-01T07:56:23.810Z,63.20
2022-12-01T07:58:52.311Z,63.32
2022-12-01T08:01:23.410Z,62.91
2022-12-01T08:03:54.848Z,58.99
2022-12-01T08:06:24.863Z,59.31
2022-12-01T08:08:53.283Z,60.93
2022-12-01T08:11:31.999Z,55.70
2022-12-01T08:14:00.587Z,56.69
2022-12-01T08:16:29.888Z,55.14
2022-12-01T08:18:58.567Z,53.78
2022-12-01T08:21:27.663Z,53.21
2022-12-01T08:23:58.175Z,53.03
2022-12-01T08:26:28.013Z,50.89
2022-12-01T08:28:58.176Z,54.44
2022-12-01T08:31:30.760Z,48.53
2022-12-01T08:33:59.481Z,47.77
2022-12-01T08:36:28.312Z,49.62
2022-12-01T08:38:57.263Z,49.62
2022-12-01T08:41:26.560Z,47.63
2022-12-01T08:43:58.400Z,45.75
2022-12-01T08:46:31.936Z,44.60
2022-12-01T08:49:01.017Z,44.61
2022-12-01T08:51:30.729Z,44.87
2022-12-01T08:54:00.907Z,46.73
2022-12-01T08:56:39.054Z,48.69
2022-12-01T08:59:08.256Z,51.48
2022-12-01T09:01:52.660Z,52.99
2022-12-01T09:04:26.923Z,54.86
2022-12-01T09:06:57.499Z,55.85
2022-12-01T09:09:29.722Z,58.57
2022-12-01T09:11:58.370Z,58.55
2022-12-01T09:14:27.504Z,59.08
2022-12-01T09:16:56.300Z,60.63
2022-12-01T09:19:25.397Z,61.56
2022-12-01T09:21:54.276Z,61.60
2022-12-01T09:24:23.367Z,61.88
2022-12-01T09:26:56.333Z,61.55
2022-12-01T09:29:26.339Z,62.29
2022-12-01T09:32:00.086Z,63.54
2022-12-01T09:34:29.385Z,64.43
2022-12-01T09:36:58.980Z,63.86
2022-12-01T09:39:28.587Z,63.51
2022-12-01T09:42:09.375Z,63.94
2022-12-01T09:44:40.806Z,64.17
2022-12-01T09:47:19.509Z,64.14
2022-12-01T09:50:00.615Z,62.67
2022-12-01T09:52:42.025Z,61.77
2022-12-01T09:55:16.794Z,60.93
2022-12-01T09:57:50.430Z,58.79
2022-12-01T10:00:24.811Z,54.01
2022-12-01T10:02:56.701Z,53.75
2022-12-01T10:05:32.603Z,54.25
2022-12-01T10:08:05.217Z,54.33
2022-12-01T10:10:42.414Z,51.89
2022-12-01T10:13:22.963Z,51.58
2022-12-01T10:15:54.290Z,51.38
2022-12-01T10:18:52.705Z,50.68
2022-12-01T10:21:43.104Z,50.93
2022-12-01T10:24:36.468Z,48.68
2022-12-01T10:27:35.768Z,48.62
2022-12-01T10:30:18.829Z,49.67
2022-12-01T10:32:55.063Z,50.31
2022-12-01T10:35:29.577Z,51.18
2022-12-01T10:38:01.635Z,52.98
2022-12-01T10:40:35.041Z,54.29
2022-12-01T10:43:03.827Z,55.44
2022-12-01T10:45:37.630Z,55.86
2022-12-01T10:48:19.222Z,56.83
2022-12-01T10:50:54.258Z,57.62
2022-12-01T10:53:27.858Z,59.00
2022-12-01T10:56:13.440Z,59.69
2022-12-01T10:58:52.171Z,59.13
2022-12-01T11:01:26.413Z,58.76
2022-12-01T11:04:01.815Z,57.93
2022-12-01T11:06:31.835Z,58.54
2022-12-01T11:09:06.937Z,59.28
2022-12-01T11:11:40.981Z,59.13
2022-12-01T11:14:25.629Z,58.75
2022-12-01T11:16:54.896Z,58.49
2022-12-01T11:19:34.336Z,57.98
2022-12-01T11:22:29.277Z,58.15
2022-12-01T11:25:01.472Z,58.46
2022-12-01T11:27:46.389Z,58.41
2022-12-01T11:30:26.614Z,58.42
2022-12-01T11:33:01.201Z,57.86
2022-12-01T11:35:36.673Z,57.61
2022-12-01T11:40:58.369Z,57.08
2022-12-01T11:43:32.487Z,57.13
2022-12-01T11:46:06.783Z,57.32
2022-12-01T11:48:36.927Z,56.17
2022-12-01T11:51:08.273Z,56.38
2022-12-01T11:53:40.030Z,55.42
2022-12-01T11:56:17.337Z,57.15
2022-12-01T11:58:49.259Z,57.62
2022-12-01T12:01:23.491Z,58.36
2022-12-01T12:04:09.484Z,58.03
2022-12-01T12:06:51.788Z,58.19
2022-12-01T12:09:37.282Z,58.23
2022-12-01T12:12:18.346Z,57.95
2022-12-01T12:14:59.423Z,58.36
2022-12-01T12:17:57.216Z,58.63
2022-12-01T12:20:28.747Z,58.55
2022-12-01T12:23:16.684Z,58.96
2022-12-01T12:26:03.998Z,58.92
2022-12-01T12:28:59.821Z,58.61
2022-12-01T12:31:42.849Z,59.06
2022-12-01T12:34:35.898Z,58.97
2022-12-01T12:37:25.482Z,59.20
2022-12-01T12:40:09.112Z,58.32
2022-12-01T12:42:54.904Z,58.23
2022-12-01T12:46:02.639Z,58.42
2022-12-01T12:52:09.062Z,58.81
2022-12-01T12:54:52.730Z,59.17
2022-12-01T12:57:25.200Z,59.25
2022-12-01T13:00:06.909Z,59.50
2022-12-01T13:02:50.784Z,60.08
2022-12-01T13:05:45.636Z,60.38
2022-12-01T13:08:20.972Z,60.93
2022-12-01T13:11:13.213Z,61.04
2022-12-01T13:13:56.030Z,61.01
2022-12-01T13:16:35.163Z,61.28
2022-12-01T13:19:22.989Z,61.56
2022-12-01T13:21:53.287Z,62.02
2022-12-01T13:24:24.358Z,62.08
2022-12-01T13:27:24.431Z,62.26
2022-12-01T13:29:55.023Z,63.16
2022-12-01T13:32:41.208Z,63.49
2022-12-01T13:35:33.648Z,63.77
2022-12-01T13:38:34.258Z,63.67
2022-12-01T13:41:32.051Z,64.23
2022-12-01T13:44:09.648Z,64.60
2022-12-01T13:46:44.643Z,64.22
2022-12-01T13:49:44.108Z,64.79
2022-12-01T13:52:16.352Z,65.42
2022-12-01T13:55:11.487Z,66.67
2022-12-01T13:57:45.364Z,65.84
2022-12-01T14:00:29.096Z,66.66
2022-12-01T14:03:13.278Z,66.35
2022-12-01T14:05:42.243Z,67.49
2022-12-01T14:08:29.401Z,66.92
2022-12-01T14:11:00.207Z,67.05
2022-12-01T14:13:31.541Z,67.13
2022-12-01T14:16:03.283Z,66.89
2022-12-01T14:18:38.850Z,66.80
2022-12-01T14:21:11.117Z,66.20
2022-12-01T14:24:01.208Z,65.86
2022-12-01T14:26:31.646Z,65.33
2022-12-01T14:29:00.314Z,65.24
2022-12-01T14:31:34.985Z,66.11
2022-12-01T14:34:19.298Z,66.69
2022-12-01T14:37:06.434Z,67.05
2022-12-01T14:39:43.124Z,68.58
2022-12-01T14:42:11.607Z,70.59
2022-12-01T14:44:51.732Z,68.82
2022-12-01T14:47:29.961Z,68.67
2022-12-01T14:50:25.338Z,71.58
2022-12-01T14:52:58.580Z,72.60
2022-12-01T14:55:35.704Z,70.44
2022-12-01T14:58:07.985Z,70.18
2022-12-01T15:00:38.681Z,70.19
2022-12-01T15:03:13.445Z,68.96
2022-12-01T15:05:44.079Z,69.25
2022-12-01T15:09:25.006Z,70.68
2022-12-01T15:11:28.859Z,69.40
2022-12-01T15:13:58.892Z,70.05
2022-12-01T15:16:31.305Z,70.36
2022-12-01T15:19:00.034Z,70.81
2022-12-01T15:21:31.325Z,71.44
2022-12-01T15:24:01.408Z,72.12
2022-12-01T15:26:35.817Z,73.32
2022-12-01T15:29:24.890Z,73.91
2022-12-01T15:32:00.700Z,72.94
2022-12-01T15:34:38.845Z,73.16
2022-12-01T15:37:15.242Z,74.13
2022-12-01T15:40:59.798Z,74.03
2022-12-01T15:43:26.008Z,74.12
2022-12-01T15:46:00.639Z,73.82
2022-12-01T15:48:32.693Z,74.60
2022-12-01T15:51:05.982Z,74.63
2022-12-01T15:53:38.151Z,76.23
2022-12-01T15:56:10.011Z,73.02
2022-12-01T15:58:47.320Z,74.77
2022-12-01T16:01:21.520Z,78.25
2022-12-01T16:03:58.705Z,83.89
2022-12-01T16:06:31.109Z,81.74
2022-12-01T16:09:03.462Z,79.74
2022-12-01T16:11:32.944Z,79.18
2022-12-01T16:14:03.476Z,79.62
2022-12-01T16:16:55.360Z,80.21
2022-12-01T16:19:27.641Z,81.90
2022-12-01T16:22:02.095Z,86.02
2022-12-01T16:24:45.117Z,87.98
2022-12-01T16:27:19.332Z,93.14
2022-12-01T16:29:50.579Z,91.34
2022-12-01T16:32:30.017Z,90.02
2022-12-01T16:34:59.609Z,88.70
2022-12-01T16:37:28.580Z,91.89
2022-12-01T16:39:58.797Z,87.93
2022-12-01T16:42:27.525Z,86.58
2022-12-01T16:44:56.110Z,86.76
2022-12-01T16:47:25.930Z,88.51
2022-12-01T16:49:54.506Z,92.65
2022-12-01T16:55:26.468Z,88.74
2022-12-01T16:57:55.783Z,88.60
2022-12-01T17:00:24.980Z,88.95
2022-12-01T17:02:54.418Z,88.64
2022-12-01T17:05:23.693Z,88.82
2022-12-01T17:07:52.568Z,88.39
2022-12-01T17:10:22.515Z,88.68
2022-12-01T17:12:52.192Z,88.94
2022-12-01T17:15:20.675Z,89.58
2022-12-01T17:17:49.871Z,90.10
2022-12-01T17:20:18.666Z,90.67
2022-12-01T17:22:47.346Z,91.14
2022-12-01T17:25:16.138Z,91.95
2022-12-01T17:27:45.992Z,90.88
2022-12-01T17:30:14.946Z,90.36
2022-12-01T17:32:43.522Z,90.58
2022-12-01T17:35:13.953Z,91.14
2022-12-01T17:37:43.760Z,90.93
2022-12-01T17:40:16.534Z,92.47
2022-12-01T17:42:50.227Z,91.66
2022-12-01T17:45:19.651Z,92.94
2022-12-01T17:47:48.233Z,93.12
2022-12-01T17:50:17.333Z,93.20
2022-12-01T17:52:46.011Z,92.95
2022-12-01T17:55:15.113Z,93.61
2022-12-01T17:57:43.790Z,95.04
2022-12-01T18:00:13.195Z,94.95
2022-12-01T18:02:41.823Z,95.44
2022-12-01T18:05:11.577Z,95.29
2022-12-01T18:07:40.544Z,94.25
2022-12-01T18:10:09.901Z,94.00
2022-12-01T18:12:38.467Z,94.46
2022-12-01T18:15:07.707Z,94.11
2022-12-01T18:17:36.349Z,94.38
2022-12-01T18:20:06.821Z,94.08
2022-12-01T18:22:35.051Z,94.04
2022-12-01T18:25:03.939Z,93.86
2022-12-01T18:27:32.625Z,94.36
2022-12-01T18:30:01.299Z,95.14
2022-12-01T18:32:30.099Z,95.58
2022-12-01T18:34:58.789Z,96.18
2022-12-01T18:37:27.470Z,96.43
2022-12-01T18:39:56.784Z,96.54
2022-12-01T18:42:25.254Z,97.51
2022-12-01T18:44:53.936Z,98.92
2022-12-01T18:47:22.724Z,100.00
2022-12-01T18:49:51.425Z,100.00
2022-12-01T18:52:20.506Z,100.00
2022-12-01T18:54:49.300Z,100.00
2022-12-01T18:57:19.412Z,100.00
2022-12-01T18:59:48.300Z,100.00
2022-12-01T19:02:17.026Z,100.00
2022-12-01T19:04:46.289Z,100.00
2022-12-01T19:07:14.868Z,100.00
2022-12-01T19:09:43.349Z,100.00
2022-12-01T19:12:12.394Z,100.00
2022-12-01T19:14:41.027Z,100.00
2022-12-01T19:17:10.020Z,100.00
2022-12-01T19:19:38.503Z,100.00
2022-12-01T19:22:07.185Z,99.92
2022-12-01T19:24:35.773Z,99.51
2022-12-01T19:27:04.764Z,98.99
2022-12-01T19:29:33.349Z,96.14
2022-12-01T19:32:02.547Z,95.73
2022-12-01T19:34:31.438Z,99.55
2022-12-01T19:37:00.950Z,99.22
2022-12-01T19:39:32.123Z,99.59
2022-12-01T19:42:00.769Z,100.00
2022-12-01T19:44:29.355Z,100.00
2022-12-01T19:46:58.246Z,99.99
2022-12-01T19:49:26.829Z,99.73
2022-12-01T19:51:55.716Z,99.77
2022-12-01T19:54:24.407Z,99.77
2022-12-01T19:56:52.985Z,100.00
2022-12-01T19:59:21.569Z,100.00
2022-12-01T20:01:50.209Z,100.00
2022-12-01T20:04:19.351Z,100.00
2022-12-01T20:06:48.240Z,100.00
2022-12-01T20:09:16.823Z,100.00
2022-12-01T20:11:45.303Z,100.00
2022-12-01T20:14:14.088Z,100.00
2022-12-01T20:16:42.928Z,100.00
2022-12-01T20:19:11.973Z,100.00
2022-12-01T20:21:43.421Z,100.00
2022-12-01T20:24:14.672Z,100.00
2022-12-01T20:26:47.248Z,100.00
2022-12-01T20:29:20.757Z,100.00
2022-12-01T20:31:51.443Z,100.00
2022-12-01T20:34:25.179Z,100.00
2022-12-01T20:36:54.688Z,100.00
2022-12-01T20:39:23.782Z,100.00
2022-12-01T20:41:52.267Z,100.00
2022-12-01T20:44:22.164Z,100.00
2022-12-01T20:46:50.669Z,100.00
2022-12-01T20:49:20.271Z,100.00
2022-12-01T20:51:49.298Z,100.00
2022-12-01T20:54:28.002Z,100.00
2022-12-01T20:56:58.693Z,100.00
2022-12-01T20:59:28.383Z,100.00
2022-12-01T21:01:57.004Z,100.00
2022-12-01T21:04:26.508Z,100.00
2022-12-01T21:06:57.146Z,100.00
2022-12-01T21:09:26.956Z,100.00
2022-12-01T21:12:17.451Z,100.00
2022-12-01T21:14:51.843Z,100.00
2022-12-01T21:17:33.424Z,100.00
2022-12-01T21:20:25.697Z,100.00
2022-12-01T21:22:58.169Z,100.00
2022-12-01T21:25:26.954Z,100.00
2022-12-01T21:28:01.785Z,100.00
2022-12-01T21:30:30.796Z,100.00
2022-12-01T21:33:17.388Z,100.00
2022-12-01T21:35:46.069Z,100.00
2022-12-01T21:38:21.649Z,100.00
2022-12-01T21:40:50.919Z,100.00
2022-12-01T21:43:25.642Z,100.00
2022-12-01T21:46:00.338Z,100.00
2022-12-01T21:48:36.844Z,100.00
2022-12-01T21:51:26.723Z,100.00
2022-12-01T21:53:56.792Z,100.00
2022-12-01T21:56:28.016Z,100.00
2022-12-01T21:58:59.740Z,100.00
2022-12-01T22:01:31.010Z,100.00
2022-12-01T22:04:02.799Z,100.00
2022-12-01T22:06:45.939Z,100.00
2022-12-01T22:09:25.831Z,100.00
2022-12-01T22:12:02.163Z,100.00
2022-12-01T22:14:35.889Z,100.00
2022-12-01T22:17:07.545Z,100.00
2022-12-01T22:19:44.881Z,100.00
2022-12-01T22:22:16.082Z,100.00
2022-12-01T22:24:51.231Z,100.00
2022-12-01T22:27:26.572Z,100.00
2022-12-01T22:30:02.928Z,100.00
2022-12-01T22:32:36.231Z,100.00
2022-12-01T22:35:25.169Z,100.00
2022-12-01T22:38:06.269Z,100.00
2022-12-01T22:40:44.099Z,100.00
2022-12-01T22:43:15.936Z,100.00
2022-12-01T22:45:45.829Z,100.00
2022-12-01T22:48:37.865Z,100.00
2022-12-01T22:51:44.139Z,100.00
2022-12-01T22:54:13.124Z,100.00
2022-12-01T22:56:47.360Z,100.00
2022-12-01T22:59:21.106Z,100.00
2022-12-01T23:02:01.915Z,100.00
2022-12-01T23:04:34.597Z,100.00
2022-12-01T23:07:26.403Z,100.00
2022-12-01T23:10:22.600Z,100.00
2022-12-01T23:12:53.697Z,100.00
2022-12-01T23:15:33.464Z,100.00
2022-12-01T23:18:22.598Z,100.00
2022-12-01T23:21:01.364Z,100.00
2022-12-01T23:23:32.997Z,100.00
2022-12-01T23:26:04.333Z,100.00
2022-12-01T23:28:35.363Z,100.00
2022-12-01T23:31:04.512Z,100.00
2022-12-01T23:33:34.972Z,100.00
2022-12-01T23:36:15.352Z,100.00
2022-12-01T23:38:47.445Z,100.00
2022-12-01T23:41:46.387Z,100.00
2022-12-01T23:44:25.843Z,100.00
2022-12-01T23:46:58.290Z,100.00
2022-12-01T23:49:31.511Z,100.00
2022-12-01T23:52:02.917Z,100.00
2022-12-01T23:54:34.582Z,100.00
2022-12-01T23:57:23.844Z,100.00
2022-12-01T23:59:59.436Z,100.00
